createdAt,value
2018-06-13T00:03:07.693Z,13.1
2018-06-13T00:13:06.645Z,13
2018-06-13T00:23:06.167Z,12.5
2018-06-13T00:33:05.123Z,12.5
2018-06-13T00:43:04.356Z,13.1
2018-06-13T00:53:03.605Z,13.1
2018-06-13T01:03:02.834Z,12.9
2018-06-13T01:13:02.070Z,12.9
2018-06-13T01:23:01.309Z,13
2018-06-13T01:33:00.543Z,12.9
2018-06-13T01:42:59.778Z,12.9
2018-06-13T01:52:59.012Z,13
2018-06-13T02:02:58.245Z,12.5
2018-06-13T02:12:57.486Z,12.5
2018-06-13T02:22:56.716Z,12.7
2018-06-13T02:32:55.953Z,12.8
2018-06-13T02:42:55.239Z,12.7
2018-06-13T02:52:54.720Z,12.9
2018-06-13T03:02:53.949Z,12.9
2018-06-13T03:12:52.918Z,13.1
2018-06-13T03:22:52.196Z,12.6
2018-06-13T03:32:51.381Z,12.9
2018-06-13T03:42:50.900Z,13
2018-06-13T03:52:49.861Z,13.3
2018-06-13T04:02:49.148Z,13.5
2018-06-13T04:12:48.328Z,13.7
2018-06-13T04:22:47.572Z,14.2
2018-06-13T04:32:46.893Z,13.8
2018-06-13T04:42:46.060Z,14.3
2018-06-13T04:52:45.282Z,14.2
2018-06-13T05:02:44.521Z,14.4
2018-06-13T05:12:44.085Z,14.3
2018-06-13T05:22:42.994Z,14.2
2018-06-13T05:32:42.315Z,14.3
2018-06-13T05:42:41.461Z,14
2018-06-13T05:52:40.751Z,14.1
2018-06-13T06:02:39.944Z,14.3
2018-06-13T06:12:39.187Z,14.5
2018-06-13T06:22:38.408Z,14.2
2018-06-13T06:32:37.976Z,14.3
2018-06-13T06:42:36.900Z,13.8
2018-06-13T06:52:36.119Z,14
2018-06-13T07:02:35.658Z,13.9
2018-06-13T07:12:34.596Z,14.4
2018-06-13T07:22:33.829Z,14.3
2018-06-13T07:32:33.369Z,14.5
2018-06-13T07:42:32.358Z,14.4
2018-06-13T07:52:31.821Z,14.5
2018-06-13T08:02:30.778Z,14.3
2018-06-13T08:12:30.301Z,14.1
2018-06-13T08:22:29.542Z,13.8
2018-06-13T08:32:28.504Z,14.3
2018-06-13T08:42:28.003Z,14.5
2018-06-13T08:52:26.961Z,14.3
2018-06-13T09:02:26.199Z,14.2
2018-06-13T09:12:25.725Z,13.4
2018-06-13T09:22:24.986Z,13
2018-06-13T09:32:23.966Z,13.2
2018-06-13T09:42:23.202Z,13
2018-06-13T09:52:22.387Z,13
2018-06-13T10:02:21.898Z,13.2
2018-06-13T10:12:20.857Z,13.8
2018-06-13T10:22:20.379Z,14.3
2018-06-13T10:32:19.330Z,14.2
2018-06-13T10:42:18.616Z,13.9
2018-06-13T10:52:17.805Z,14.4
2018-06-13T11:02:17.040Z,14.5
2018-06-13T11:12:16.275Z,13.1
2018-06-13T11:22:15.519Z,12.9
2018-06-13T11:32:14.760Z,12.9
2018-06-13T11:42:14.280Z,12.9
2018-06-13T11:52:13.223Z,12.7
2018-06-13T12:02:12.460Z,12.9
2018-06-13T12:12:11.895Z,12.7
2018-06-13T12:22:10.932Z,12.9
2018-06-13T12:32:10.175Z,13.1
2018-06-13T12:42:09.417Z,12.6
2018-06-13T12:52:08.652Z,12.9
2018-06-13T13:02:08.176Z,13
2018-06-13T13:12:07.120Z,13.1
2018-06-13T13:22:06.357Z,12.9
2018-06-13T13:32:05.877Z,12.6
2018-06-13T13:42:04.828Z,13.1
2018-06-13T13:52:04.165Z,13
2018-06-13T14:02:03.317Z,13
2018-06-13T14:12:02.821Z,12.9
2018-06-13T14:22:01.849Z,13.1
2018-06-13T14:32:01.022Z,12.6
2018-06-13T14:42:00.538Z,13
2018-06-13T14:51:59.508Z,12.6
2018-06-13T15:01:58.747Z,12.6
2018-06-13T15:11:57.968Z,12.9
2018-06-13T15:21:57.200Z,12.7
2018-06-13T15:31:56.444Z,12.7
2018-06-13T15:41:55.961Z,12.9
2018-06-13T15:51:54.919Z,12.7
2018-06-13T16:01:54.216Z,12.8
2018-06-13T16:11:53.674Z,13.1
2018-06-13T16:21:52.640Z,13
2018-06-13T16:31:52.160Z,12.9
2018-06-13T16:41:51.115Z,13
2018-06-13T16:51:50.359Z,12.5
2018-06-13T17:01:49.880Z,12.5
2018-06-13T17:11:48.837Z,12.5
2018-06-13T17:21:48.137Z,12.6
2018-06-13T17:31:47.327Z,12.9
2018-06-13T17:41:46.646Z,12.7
2018-06-13T17:51:45.800Z,12.7
2018-06-13T18:01:45.041Z,12.9
2018-06-13T18:11:44.611Z,12.9
2018-06-13T18:21:43.520Z,12.7
2018-06-13T18:31:43.045Z,12.6
2018-06-13T18:41:42.004Z,12.9
2018-06-13T18:51:41.241Z,12.9
2018-06-13T19:01:40.498Z,13
2018-06-13T19:11:39.732Z,12.9
2018-06-13T19:21:39.257Z,12.9
2018-06-13T19:31:38.209Z,12.9
2018-06-13T19:41:37.737Z,12.9
2018-06-13T19:51:36.690Z,12.5
2018-06-13T20:01:35.924Z,12.9
2018-06-13T20:11:35.280Z,13
2018-06-13T20:21:34.783Z,12.9
2018-06-13T20:31:34.279Z,12.7
2018-06-13T20:41:32.879Z,12.9
2018-06-13T20:51:32.252Z,12.7
2018-06-13T21:01:31.641Z,12.9
2018-06-13T21:11:30.869Z,13
2018-06-13T21:21:30.104Z,13
2018-06-13T21:31:29.062Z,12.9
2018-06-13T21:41:28.581Z,12.7
2018-06-13T21:51:27.536Z,12.8
2018-06-13T22:01:27.057Z,13
2018-06-13T22:11:26.286Z,12.5
2018-06-13T22:21:25.810Z,13
2018-06-13T22:31:24.480Z,12.6
2018-06-13T22:41:23.724Z,12.9
2018-06-13T22:51:22.951Z,12.5
2018-06-13T23:01:22.492Z,12.5
2018-06-13T23:11:36.328Z,12.9
2018-06-13T23:21:20.712Z,12.8
2018-06-13T23:31:20.034Z,12.8
2018-06-13T23:41:19.419Z,12.9
2018-06-13T23:51:18.365Z,13
